sensor_id;sensor_type;location;lat;lon;timestamp;pressure;altitude;pressure_sealevel;temperature;humidity
68525;BME280;55524;51.380;13.372;2023-04-20T00:01:26;100928.69;;;4.05;100.00
68525;BME280;55524;51.380;13.372;2023-04-20T00:03:53;100922.56;;;4.08;100.00
68525;BME280;55524;51.380;13.372;2023-04-20T00:06:19;100927.81;;;4.05;100.00
68525;BME280;55524;51.380;13.372;2023-04-20T00:08:46;100930.41;;;4.09;100.00
68525;BME280;55524;51.380;13.372;2023-04-20T00:11:13;100931.31;;;4.05;100.00
68525;BME280;55524;51.380;13.372;2023-04-20T00:13:39;100927.78;;;4.12;100.00
68525;BME280;55524;51.380;13.372;2023-04-20T00:16:05;100926.06;;;4.10;100.00
68525;BME280;55524;51.380;13.372;2023-04-20T00:18:32;100922.56;;;4.08;100.00
68525;BME280;55524;51.380;13.372;2023-04-20T00:20:58;100919.94;;;4.11;100.00
68525;BME280;55524;51.380;13.372;2023-04-20T00:23:24;100921.69;;;4.10;100.00
68525;BME280;55524;51.380;13.372;2023-04-20T00:25:51;100924.31;;;4.13;100.00
68525;BME280;55524;51.380;13.372;2023-04-20T00:28:17;100915.59;;;4.16;100.00
68525;BME280;55524;51.380;13.372;2023-04-20T00:30:43;100925.16;;;4.15;100.00
68525;BME280;55524;51.380;13.372;2023-04-20T00:33:10;100924.28;;;4.15;100.00
68525;BME280;55524;51.380;13.372;2023-04-20T00:35:36;100917.34;;;4.12;100.00
68525;BME280;55524;51.380;13.372;2023-04-20T00:38:02;100920.78;;;4.21;100.00
68525;BME280;55524;51.380;13.372;2023-04-20T00:40:28;100925.13;;;4.25;100.00
68525;BME280;55524;51.380;13.372;2023-04-20T00:42:55;100925.13;;;4.25;100.00
68525;BME280;55524;51.380;13.372;2023-04-20T00:45:21;100925.13;;;4.25;100.00
68525;BME280;55524;51.380;13.372;2023-04-20T00:47:47;100927.78;;;4.20;100.00
68525;BME280;55524;51.380;13.372;2023-04-20T00:50:14;100920.81;;;4.16;100.00
68525;BME280;55524;51.380;13.372;2023-04-20T00:52:41;100926.03;;;4.16;100.00
68525;BME280;55524;51.380;13.372;2023-04-20T00:55:08;100920.81;;;4.11;100.00
68525;BME280;55524;51.380;13.372;2023-04-20T00:57:34;100924.31;;;4.13;100.00
68525;BME280;55524;51.380;13.372;2023-04-20T01:00:01;100926.03;;;4.16;100.00
68525;BME280;55524;51.380;13.372;2023-04-20T01:02:27;100919.94;;;4.14;100.00
68525;BME280;55524;51.380;13.372;2023-04-20T01:04:54;100922.53;;;4.15;100.00
68525;BME280;55524;51.380;13.372;2023-04-20T01:07:21;100921.72;;;4.09;100.00
68525;BME280;55524;51.380;13.372;2023-04-20T01:09:47;100923.41;;;4.14;100.00
68525;BME280;55524;51.380;13.372;2023-04-20T01:12:14;100915.56;;;4.14;100.00
68525;BME280;55524;51.380;13.372;2023-04-20T01:14:40;100915.59;;;4.16;100.00
68525;BME280;55524;51.380;13.372;2023-04-20T01:17:06;100918.19;;;4.17;100.00
68525;BME280;55524;51.380;13.372;2023-04-20T01:19:33;100915.56;;;4.19;100.00
68525;BME280;55524;51.380;13.372;2023-04-20T01:21:59;100916.44;;;4.18;100.00
68525;BME280;55524;51.380;13.372;2023-04-20T01:24:26;100907.72;;;4.21;100.00
68525;BME280;55524;51.380;13.372;2023-04-20T01:26:52;100912.94;;;4.21;100.00
68525;BME280;55524;51.380;13.372;2023-04-20T01:29:19;100915.56;;;4.21;100.00
68525;BME280;55524;51.380;13.372;2023-04-20T01:31:45;100916.44;;;4.21;100.00
68525;BME280;55524;51.380;13.372;2023-04-20T01:34:12;100913.81;;;4.21;100.00
68525;BME280;55524;51.380;13.372;2023-04-20T01:36:38;100916.41;;;4.19;100.00
68525;BME280;55524;51.380;13.372;2023-04-20T01:39:04;100912.09;;;4.20;100.00
68525;BME280;55524;51.380;13.372;2023-04-20T01:41:31;100909.47;;;4.14;100.00
68525;BME280;55524;51.380;13.372;2023-04-20T01:43:57;100911.22;;;4.13;100.00
68525;BME280;55524;51.380;13.372;2023-04-20T01:46:23;100912.06;;;4.18;100.00
68525;BME280;55524;51.380;13.372;2023-04-20T01:48:49;100909.44;;;4.15;100.00
68525;BME280;55524;51.380;13.372;2023-04-20T01:51:16;100914.69;;;4.18;100.00
68525;BME280;55524;51.380;13.372;2023-04-20T01:53:42;100910.34;;;4.21;100.00
68525;BME280;55524;51.380;13.372;2023-04-20T01:56:08;100911.19;;;4.19;100.00
68525;BME280;55524;51.380;13.372;2023-04-20T01:58:34;100907.72;;;4.21;100.00
68525;BME280;55524;51.380;13.372;2023-04-20T02:01:01;100906.00;;;4.16;100.00
68525;BME280;55524;51.380;13.372;2023-04-20T02:03:27;100899.88;;;4.14;100.00
68525;BME280;55524;51.380;13.372;2023-04-20T02:05:54;100899.91;;;4.07;100.00
68525;BME280;55524;51.380;13.372;2023-04-20T02:08:20;100899.03;;;4.06;100.00
68525;BME280;55524;51.380;13.372;2023-04-20T02:10:47;100900.81;;;3.95;100.00
68525;BME280;55524;51.380;13.372;2023-04-20T02:13:13;100905.16;;;3.94;100.00
68525;BME280;55524;51.380;13.372;2023-04-20T02:15:39;100899.97;;;3.90;100.00
68525;BME280;55524;51.380;13.372;2023-04-20T02:18:06;100899.09;;;3.86;100.00
68525;BME280;55524;51.380;13.372;2023-04-20T02:20:32;100903.47;;;3.81;100.00
68525;BME280;55524;51.380;13.372;2023-04-20T02:22:58;100909.59;;;3.69;100.00
68525;BME280;55524;51.380;13.372;2023-04-20T02:25:25;100902.63;;;3.65;100.00
68525;BME280;55524;51.380;13.372;2023-04-20T02:27:51;100908.75;;;3.61;100.00
68525;BME280;55524;51.380;13.372;2023-04-20T02:30:17;100911.34;;;3.48;100.00
68525;BME280;55524;51.380;13.372;2023-04-20T02:32:43;100908.75;;;3.41;100.00
68525;BME280;55524;51.380;13.372;2023-04-20T02:35:10;100914.00;;;3.37;100.00
68525;BME280;55524;51.380;13.372;2023-04-20T02:37:36;100913.09;;;3.35;100.00
68525;BME280;55524;51.380;13.372;2023-04-20T02:40:02;100913.97;;;3.32;100.00
68525;BME280;55524;51.380;13.372;2023-04-20T02:42:29;100915.75;;;3.29;100.00
68525;BME280;55524;51.380;13.372;2023-04-20T02:44:56;100916.56;;;3.25;100.00
68525;BME280;55524;51.380;13.372;2023-04-20T02:47:22;100918.34;;;3.21;100.00
68525;BME280;55524;51.380;13.372;2023-04-20T02:49:48;100914.84;;;3.19;100.00
68525;BME280;55524;51.380;13.372;2023-04-20T02:52:15;100918.31;;;3.15;100.00
68525;BME280;55524;51.380;13.372;2023-04-20T02:54:41;100916.59;;;3.09;100.00
68525;BME280;55524;51.380;13.372;2023-04-20T02:57:08;100922.66;;;3.11;100.00
68525;BME280;55524;51.380;13.372;2023-04-20T02:59:36;100923.56;;;3.10;100.00
68525;BME280;55524;51.380;13.372;2023-04-20T03:02:03;100927.03;;;3.12;100.00
68525;BME280;55524;51.380;13.372;2023-04-20T03:04:29;100931.38;;;3.09;100.00
68525;BME280;55524;51.380;13.372;2023-04-20T03:06:57;100933.09;;;3.08;100.00
68525;BME280;55524;51.380;13.372;2023-04-20T03:09:23;100931.38;;;3.01;100.00
68525;BME280;55524;51.380;13.372;2023-04-20T03:11:50;100925.28;;;2.98;100.00
68525;BME280;55524;51.380;13.372;2023-04-20T03:14:16;100920.91;;;2.96;100.00
68525;BME280;55524;51.380;13.372;2023-04-20T03:16:43;100928.75;;;2.95;100.00
68525;BME280;55524;51.380;13.372;2023-04-20T03:19:10;100933.09;;;2.85;100.00
68525;BME280;55524;51.380;13.372;2023-04-20T03:21:36;100929.56;;;2.71;100.00
68525;BME280;55524;51.380;13.372;2023-04-20T03:24:03;100933.88;;;2.55;100.00
68525;BME280;55524;51.380;13.372;2023-04-20T03:26:29;100939.94;;;2.57;100.00
68525;BME280;55524;51.380;13.372;2023-04-20T03:28:56;100933.88;;;2.58;100.00
68525;BME280;55524;51.380;13.372;2023-04-20T03:31:22;100939.09;;;2.54;100.00
68525;BME280;55524;51.380;13.372;2023-04-20T03:33:48;100928.63;;;2.49;100.00
68525;BME280;55524;51.380;13.372;2023-04-20T03:36:15;100937.31;;;2.46;100.00
68525;BME280;55524;51.380;13.372;2023-04-20T03:38:41;100942.50;;;2.45;100.00
68525;BME280;55524;51.380;13.372;2023-04-20T03:41:07;100942.56;;;2.54;100.00
68525;BME280;55524;51.380;13.372;2023-04-20T03:43:34;100941.72;;;2.58;100.00
68525;BME280;55524;51.380;13.372;2023-04-20T03:46:00;100949.56;;;2.63;100.00
68525;BME280;55524;51.380;13.372;2023-04-20T03:48:26;100955.66;;;2.71;100.00
68525;BME280;55524;51.380;13.372;2023-04-20T03:50:53;100942.63;;;2.76;100.00
68525;BME280;55524;51.380;13.372;2023-04-20T03:53:19;100942.59;;;2.72;100.00
68525;BME280;55524;51.380;13.372;2023-04-20T03:55:45;100942.59;;;2.63;100.00
68525;BME280;55524;51.380;13.372;2023-04-20T03:58:12;100944.34;;;2.77;100.00
68525;BME280;55524;51.380;13.372;2023-04-20T04:00:38;100947.81;;;2.72;100.00
68525;BME280;55524;51.380;13.372;2023-04-20T04:03:05;100953.06;;;2.71;100.00
68525;BME280;55524;51.380;13.372;2023-04-20T04:05:31;100957.38;;;2.69;100.00
68525;BME280;55524;51.380;13.372;2023-04-20T04:07:57;100944.34;;;2.70;100.00
68525;BME280;55524;51.380;13.372;2023-04-20T04:10:24;100947.84;;;2.79;100.00
68525;BME280;55524;51.380;13.372;2023-04-20T04:12:50;100951.31;;;2.81;100.00
68525;BME280;55524;51.380;13.372;2023-04-20T04:15:16;100956.56;;;2.84;100.00
68525;BME280;55524;51.380;13.372;2023-04-20T04:17:44;100949.59;;;2.83;100.00
68525;BME280;55524;51.380;13.372;2023-04-20T04:20:11;100938.28;;;2.81;100.00
68525;BME280;55524;51.380;13.372;2023-04-20T04:22:37;100944.38;;;2.83;100.00
68525;BME280;55524;51.380;13.372;2023-04-20T04:25:04;100937.44;;;2.92;100.00
68525;BME280;55524;51.380;13.372;2023-04-20T04:27:32;100945.31;;;2.97;100.00
68525;BME280;55524;51.380;13.372;2023-04-20T04:30:06;100948.72;;;2.76;100.00
68525;BME280;55524;51.380;13.372;2023-04-20T04:32:33;100953.97;;;2.88;100.00
68525;BME280;55524;51.380;13.372;2023-04-20T04:35:01;100956.56;;;2.93;100.00
68525;BME280;55524;51.380;13.372;2023-04-20T04:37:27;100954.88;;;3.01;100.00
68525;BME280;55524;51.380;13.372;2023-04-20T04:39:53;100958.28;;;2.77;100.00
68525;BME280;55524;51.380;13.372;2023-04-20T04:42:19;100960.06;;;2.92;100.00
68525;BME280;55524;51.380;13.372;2023-04-20T04:44:46;100960.94;;;2.94;100.00
68525;BME280;55524;51.380;13.372;2023-04-20T04:47:12;100974.84;;;2.85;100.00
68525;BME280;55524;51.380;13.372;2023-04-20T04:49:39;100980.09;;;2.90;100.00
68525;BME280;55524;51.380;13.372;2023-04-20T04:52:08;100977.47;;;2.85;100.00
68525;BME280;55524;51.380;13.372;2023-04-20T04:54:34;100979.19;;;2.82;100.00
68525;BME280;55524;51.380;13.372;2023-04-20T04:57:01;100982.69;;;2.85;100.00
68525;BME280;55524;51.380;13.372;2023-04-20T04:59:27;100979.22;;;2.99;100.00
68525;BME280;55524;51.380;13.372;2023-04-20T05:01:54;100979.22;;;2.94;100.00
68525;BME280;55524;51.380;13.372;2023-04-20T05:04:20;100986.19;;;2.95;100.00
68525;BME280;55524;51.380;13.372;2023-04-20T05:06:46;100981.81;;;3.00;100.00
68525;BME280;55524;51.380;13.372;2023-04-20T05:09:12;100987.94;;;3.08;100.00
68525;BME280;55524;51.380;13.372;2023-04-20T05:11:39;100989.69;;;3.09;100.00
68525;BME280;55524;51.380;13.372;2023-04-20T05:14:05;100990.56;;;3.14;100.00
68525;BME280;55524;51.380;13.372;2023-04-20T05:16:31;100992.28;;;3.12;100.00
68525;BME280;55524;51.380;13.372;2023-04-20T05:18:58;100994.94;;;3.28;100.00
68525;BME280;55524;51.380;13.372;2023-04-20T05:21:24;101001.00;;;3.20;100.00
68525;BME280;55524;51.380;13.372;2023-04-20T05:23:51;100999.31;;;3.29;100.00
68525;BME280;55524;51.380;13.372;2023-04-20T05:26:17;101010.63;;;3.40;100.00
68525;BME280;55524;51.380;13.372;2023-04-20T05:28:43;101001.06;;;3.42;100.00
68525;BME280;55524;51.380;13.372;2023-04-20T05:31:09;101003.66;;;3.37;100.00
68525;BME280;55524;51.380;13.372;2023-04-20T05:33:36;101005.38;;;3.28;100.00
68525;BME280;55524;51.380;13.372;2023-04-20T05:36:02;101005.41;;;3.40;100.00
68525;BME280;55524;51.380;13.372;2023-04-20T05:38:28;101008.03;;;3.41;100.00
68525;BME280;55524;51.380;13.372;2023-04-20T05:40:55;100997.56;;;3.38;100.00
68525;BME280;55524;51.380;13.372;2023-04-20T05:43:21;100999.31;;;3.62;100.00
68525;BME280;55524;51.380;13.372;2023-04-20T05:45:48;101000.19;;;3.72;100.00
68525;BME280;55524;51.380;13.372;2023-04-20T05:48:14;101012.41;;;3.49;100.00
68525;BME280;55524;51.380;13.372;2023-04-20T05:50:40;100996.72;;;3.65;100.00
68525;BME280;55524;51.380;13.372;2023-04-20T05:53:08;100999.31;;;3.65;100.00
68525;BME280;55524;51.380;13.372;2023-04-20T05:55:34;101004.53;;;3.84;100.00
68525;BME280;55524;51.380;13.372;2023-04-20T05:58:00;101003.69;;;3.92;100.00
68525;BME280;55524;51.380;13.372;2023-04-20T06:00:27;101001.06;;;4.00;100.00
68525;BME280;55524;51.380;13.372;2023-04-20T06:02:53;101000.16;;;4.00;100.00
68525;BME280;55524;51.380;13.372;2023-04-20T06:05:19;100999.28;;;4.08;100.00
68525;BME280;55524;51.380;13.372;2023-04-20T06:07:46;101004.53;;;3.98;100.00
68525;BME280;55524;51.380;13.372;2023-04-20T06:10:12;101007.16;;;3.72;100.00
68525;BME280;55524;51.380;13.372;2023-04-20T06:12:39;101008.03;;;3.70;100.00
68525;BME280;55524;51.380;13.372;2023-04-20T06:15:05;101001.03;;;3.76;100.00
68525;BME280;55524;51.380;13.372;2023-04-20T06:17:35;101005.41;;;3.70;100.00
68525;BME280;55524;51.380;13.372;2023-04-20T06:20:02;100998.47;;;3.73;100.00
68525;BME280;55524;51.380;13.372;2023-04-20T06:22:30;101003.66;;;3.79;100.00
68525;BME280;55524;51.380;13.372;2023-04-20T06:24:56;101001.06;;;3.92;100.00
68525;BME280;55524;51.380;13.372;2023-04-20T06:27:24;101017.63;;;3.96;100.00
68525;BME280;55524;51.380;13.372;2023-04-20T06:29:50;101018.47;;;3.90;100.00
68525;BME280;55524;51.380;13.372;2023-04-20T06:32:17;101017.59;;;4.02;100.00
68525;BME280;55524;51.380;13.372;2023-04-20T06:34:43;101023.69;;;3.80;100.00
68525;BME280;55524;51.380;13.372;2023-04-20T06:37:09;101027.19;;;4.00;100.00
68525;BME280;55524;51.380;13.372;2023-04-20T06:39:35;101022.84;;;3.75;100.00
68525;BME280;55524;51.380;13.372;2023-04-20T06:42:02;101019.34;;;3.86;100.00
68525;BME280;55524;51.380;13.372;2023-04-20T06:44:28;101021.09;;;3.89;100.00
68525;BME280;55524;51.380;13.372;2023-04-20T06:46:54;101023.69;;;3.90;100.00
68525;BME280;55524;51.380;13.372;2023-04-20T06:49:21;101019.34;;;3.97;100.00
68525;BME280;55524;51.380;13.372;2023-04-20T06:51:47;101017.59;;;3.99;100.00
68525;BME280;55524;51.380;13.372;2023-04-20T06:54:13;101017.63;;;3.96;100.00
68525;BME280;55524;51.380;13.372;2023-04-20T06:56:39;101017.63;;;3.96;100.00
68525;BME280;55524;51.380;13.372;2023-04-20T06:59:06;101021.09;;;3.97;100.00
68525;BME280;55524;51.380;13.372;2023-04-20T07:01:32;101024.56;;;3.94;100.00
68525;BME280;55524;51.380;13.372;2023-04-20T07:03:58;101026.31;;;3.86;100.00
68525;BME280;55524;51.380;13.372;2023-04-20T07:06:24;101035.91;;;3.96;100.00
68525;BME280;55524;51.380;13.372;2023-04-20T07:08:52;101034.16;;;3.95;100.00
68525;BME280;55524;51.380;13.372;2023-04-20T07:11:19;101034.16;;;4.01;100.00
68525;BME280;55524;51.380;13.372;2023-04-20T07:13:45;101035.88;;;4.07;100.00
68525;BME280;55524;51.380;13.372;2023-04-20T07:16:11;101033.25;;;4.14;100.00
68525;BME280;55524;51.380;13.372;2023-04-20T07:18:39;101026.31;;;4.13;100.00
68525;BME280;55524;51.380;13.372;2023-04-20T07:21:05;101031.50;;;4.19;100.00
68525;BME280;55524;51.380;13.372;2023-04-20T07:23:31;101024.53;;;4.28;100.00
68525;BME280;55524;51.380;13.372;2023-04-20T07:25:58;101023.59;;;4.42;100.00
68525;BME280;55524;51.380;13.372;2023-04-20T07:28:24;101030.59;;;4.37;100.00
68525;BME280;55524;51.380;13.372;2023-04-20T07:30:51;101036.78;;;4.12;100.00
68525;BME280;55524;51.380;13.372;2023-04-20T07:33:17;101028.00;;;4.24;100.00
68525;BME280;55524;51.380;13.372;2023-04-20T07:35:43;101024.50;;;4.40;100.00
68525;BME280;55524;51.380;13.372;2023-04-20T07:38:10;101024.50;;;4.31;100.00
68525;BME280;55524;51.380;13.372;2023-04-20T07:40:36;101027.97;;;4.48;100.00
68525;BME280;55524;51.380;13.372;2023-04-20T07:43:02;101025.34;;;4.39;100.00
68525;BME280;55524;51.380;13.372;2023-04-20T07:45:29;101036.69;;;4.42;100.00
68525;BME280;55524;51.380;13.372;2023-04-20T07:47:55;101043.69;;;4.30;100.00
68525;BME280;55524;51.380;13.372;2023-04-20T07:50:22;101038.44;;;4.40;100.00
68525;BME280;55524;51.380;13.372;2023-04-20T07:52:48;101043.63;;;4.51;100.00
68525;BME280;55524;51.380;13.372;2023-04-20T07:55:14;101034.97;;;4.37;100.00
68525;BME280;55524;51.380;13.372;2023-04-20T07:57:42;101044.50;;;4.58;100.00
68525;BME280;55524;51.380;13.372;2023-04-20T08:00:09;101042.72;;;4.71;100.00
68525;BME280;55524;51.380;13.372;2023-04-20T08:02:37;101050.56;;;4.74;100.00
68525;BME280;55524;51.380;13.372;2023-04-20T08:05:04;101048.78;;;4.79;100.00
68525;BME280;55524;51.380;13.372;2023-04-20T08:07:30;101045.31;;;4.80;100.00
68525;BME280;55524;51.380;13.372;2023-04-20T08:09:57;101051.41;;;4.83;100.00
68525;BME280;55524;51.380;13.372;2023-04-20T08:12:23;101043.53;;;4.79;100.00
68525;BME280;55524;51.380;13.372;2023-04-20T08:14:50;101034.81;;;4.83;100.00
68525;BME280;55524;51.380;13.372;2023-04-20T08:17:16;101030.44;;;4.82;100.00
68525;BME280;55524;51.380;13.372;2023-04-20T08:19:42;101039.25;;;4.72;100.00
68525;BME280;55524;51.380;13.372;2023-04-20T08:22:09;101033.13;;;4.66;100.00
68525;BME280;55524;51.380;13.372;2023-04-20T08:24:37;101034.84;;;4.80;100.00
68525;BME280;55524;51.380;13.372;2023-04-20T08:27:03;101033.81;;;5.08;100.00
68525;BME280;55524;51.380;13.372;2023-04-20T08:29:31;101034.72;;;5.07;100.00
68525;BME280;55524;51.380;13.372;2023-04-20T08:31:57;101039.88;;;5.20;100.00
68525;BME280;55524;51.380;13.372;2023-04-20T08:34:24;101032.84;;;5.31;100.00
68525;BME280;55524;51.380;13.372;2023-04-20T08:36:50;101041.72;;;5.01;100.00
68525;BME280;55524;51.380;13.372;2023-04-20T08:39:19;101034.56;;;5.32;100.00
68525;BME280;55524;51.380;13.372;2023-04-20T08:41:47;101023.25;;;5.22;100.00
68525;BME280;55524;51.380;13.372;2023-04-20T08:44:18;101031.88;;;5.41;100.00
68525;BME280;55524;51.380;13.372;2023-04-20T08:46:47;101031.94;;;5.29;100.00
68525;BME280;55524;51.380;13.372;2023-04-20T08:49:18;101031.19;;;5.11;100.00
68525;BME280;55524;51.380;13.372;2023-04-20T08:51:46;101036.31;;;5.30;100.00
68525;BME280;55524;51.380;13.372;2023-04-20T08:54:13;101029.44;;;5.15;100.00
68525;BME280;55524;51.380;13.372;2023-04-20T08:56:40;101024.78;;;5.55;100.00
68525;BME280;55524;51.380;13.372;2023-04-20T08:59:06;101029.94;;;5.67;100.00
68525;BME280;55524;51.380;13.372;2023-04-20T09:01:37;101019.38;;;5.78;100.00
68525;BME280;55524;51.380;13.372;2023-04-20T09:04:25;101023.69;;;5.84;100.00
68525;BME280;55524;51.380;13.372;2023-04-20T09:06:54;101031.44;;;6.02;100.00
68525;BME280;55524;51.380;13.372;2023-04-20T09:09:24;101029.59;;;6.12;100.00
68525;BME280;55524;51.380;13.372;2023-04-20T09:12:05;101027.81;;;6.12;100.00
68525;BME280;55524;51.380;13.372;2023-04-20T09:14:46;101027.16;;;5.86;99.79
68525;BME280;55524;51.380;13.372;2023-04-20T09:17:14;101032.41;;;5.84;99.46
68525;BME280;55524;51.380;13.372;2023-04-20T09:19:43;101049.13;;;5.70;99.79
68525;BME280;55524;51.380;13.372;2023-04-20T09:22:10;101045.50;;;5.87;100.00
68525;BME280;55524;51.380;13.372;2023-04-20T09:24:38;101050.56;;;6.12;99.44
68525;BME280;55524;51.380;13.372;2023-04-20T09:27:15;101048.88;;;6.08;98.86
68525;BME280;55524;51.380;13.372;2023-04-20T09:29:42;101051.38;;;6.22;100.00
68525;BME280;55524;51.380;13.372;2023-04-20T09:32:19;101051.19;;;6.37;100.00
68525;BME280;55524;51.380;13.372;2023-04-20T09:34:45;101044.47;;;6.08;99.13
68525;BME280;55524;51.380;13.372;2023-04-20T09:37:14;101046.97;;;6.24;100.00
68525;BME280;55524;51.380;13.372;2023-04-20T09:39:45;101044.34;;;6.24;100.00
68525;BME280;55524;51.380;13.372;2023-04-20T09:42:12;101049.50;;;6.31;100.00
68525;BME280;55524;51.380;13.372;2023-04-20T09:44:40;101043.31;;;6.37;100.00
68525;BME280;55524;51.380;13.372;2023-04-20T09:47:08;101051.22;;;6.35;100.00
68525;BME280;55524;51.380;13.372;2023-04-20T09:49:44;101046.72;;;6.47;100.00
68525;BME280;55524;51.380;13.372;2023-04-20T09:52:17;101045.94;;;6.37;100.00
68525;BME280;55524;51.380;13.372;2023-04-20T09:54:44;101040.66;;;6.43;100.00
68525;BME280;55524;51.380;13.372;2023-04-20T09:57:12;101035.41;;;6.40;100.00
68525;BME280;55524;51.380;13.372;2023-04-20T09:59:42;101043.28;;;6.42;100.00
68525;BME280;55524;51.380;13.372;2023-04-20T10:02:10;101035.41;;;6.43;100.00
68525;BME280;55524;51.380;13.372;2023-04-20T10:04:50;101036.28;;;6.40;100.00
68525;BME280;55524;51.380;13.372;2023-04-20T10:07:27;101038.84;;;6.45;100.00
68525;BME280;55524;51.380;13.372;2023-04-20T10:12:49;101026.75;;;6.32;100.00
68525;BME280;55524;51.380;13.372;2023-04-20T10:15:16;101027.81;;;6.14;100.00
68525;BME280;55524;51.380;13.372;2023-04-20T10:17:43;101028.75;;;6.10;100.00
68525;BME280;55524;51.380;13.372;2023-04-20T10:20:23;101021.75;;;6.07;100.00
68525;BME280;55524;51.380;13.372;2023-04-20T10:22:51;101019.94;;;6.12;100.00
68525;BME280;55524;51.380;13.372;2023-04-20T10:25:22;101021.75;;;6.10;100.00
68525;BME280;55524;51.380;13.372;2023-04-20T10:27:59;101026.91;;;6.16;100.00
68525;BME280;55524;51.380;13.372;2023-04-20T10:30:33;101019.13;;;6.10;100.00
68525;BME280;55524;51.380;13.372;2023-04-20T10:33:07;101015.66;;;6.07;100.00
68525;BME280;55524;51.380;13.372;2023-04-20T10:36:01;101017.47;;;5.97;100.00
68525;BME280;55524;51.380;13.372;2023-04-20T10:38:32;101023.59;;;5.99;100.00
68525;BME280;55524;51.380;13.372;2023-04-20T10:41:08;101028.00;;;5.96;100.00
68525;BME280;55524;51.380;13.372;2023-04-20T10:43:35;101025.34;;;5.99;100.00
68525;BME280;55524;51.380;13.372;2023-04-20T10:46:16;101013.09;;;5.98;100.00
68525;BME280;55524;51.380;13.372;2023-04-20T10:51:17;101004.28;;;6.05;100.00
68525;BME280;55524;51.380;13.372;2023-04-20T10:53:43;101003.44;;;6.01;100.00
68525;BME280;55524;51.380;13.372;2023-04-20T10:56:09;100993.81;;;6.02;100.00
68525;BME280;55524;51.380;13.372;2023-04-20T10:58:36;100995.50;;;6.10;100.00
68525;BME280;55524;51.380;13.372;2023-04-20T11:01:05;100992.84;;;6.12;100.00
68525;BME280;55524;51.380;13.372;2023-04-20T11:03:32;100985.78;;;6.17;100.00
68525;BME280;55524;51.380;13.372;2023-04-20T11:06:01;100985.81;;;6.15;100.00
68525;BME280;55524;51.380;13.372;2023-04-20T11:08:38;100983.28;;;6.05;100.00
68525;BME280;55524;51.380;13.372;2023-04-20T11:11:05;100987.69;;;6.06;100.00
68525;BME280;55524;51.380;13.372;2023-04-20T11:13:32;100996.41;;;6.05;100.00
68525;BME280;55524;51.380;13.372;2023-04-20T11:16:08;100988.53;;;6.05;100.00
68525;BME280;55524;51.380;13.372;2023-04-20T11:18:34;100988.63;;;5.99;100.00
68525;BME280;55524;51.380;13.372;2023-04-20T11:21:00;100993.03;;;5.95;100.00
68525;BME280;55524;51.380;13.372;2023-04-20T11:23:36;100980.75;;;5.99;100.00
68525;BME280;55524;51.380;13.372;2023-04-20T11:26:03;100982.44;;;6.04;100.00
68525;BME280;55524;51.380;13.372;2023-04-20T11:28:29;100984.13;;;6.10;100.00
68525;BME280;55524;51.380;13.372;2023-04-20T11:30:59;100988.44;;;6.15;100.00
68525;BME280;55524;51.380;13.372;2023-04-20T11:33:30;100989.41;;;6.07;100.00
68525;BME280;55524;51.380;13.372;2023-04-20T11:35:59;100979.69;;;6.16;100.00
68525;BME280;55524;51.380;13.372;2023-04-20T11:38:31;100982.25;;;6.23;100.00
68525;BME280;55524;51.380;13.372;2023-04-20T11:40:58;100983.09;;;6.25;100.00
68525;BME280;55524;51.380;13.372;2023-04-20T11:43:33;100983.03;;;6.29;100.00
68525;BME280;55524;51.380;13.372;2023-04-20T11:45:59;100979.50;;;6.32;100.00
68525;BME280;55524;51.380;13.372;2023-04-20T11:48:30;100973.19;;;6.48;100.00
68525;BME280;55524;51.380;13.372;2023-04-20T11:50:57;100974.91;;;6.54;100.00
68525;BME280;55524;51.380;13.372;2023-04-20T11:53:23;100968.81;;;6.50;100.00
68525;BME280;55524;51.380;13.372;2023-04-20T11:55:49;100977.53;;;6.52;100.00
68525;BME280;55524;51.380;13.372;2023-04-20T11:58:16;100970.41;;;6.60;100.00
68525;BME280;55524;51.380;13.372;2023-04-20T12:00:42;100971.34;;;6.58;100.00
68525;BME280;55524;51.380;13.372;2023-04-20T12:03:08;100963.41;;;6.62;100.00
68525;BME280;55524;51.380;13.372;2023-04-20T12:05:34;100965.06;;;6.70;100.00
68525;BME280;55524;51.380;13.372;2023-04-20T12:08:01;100961.50;;;6.74;100.00
68525;BME280;55524;51.380;13.372;2023-04-20T12:10:27;100957.03;;;6.80;100.00
68525;BME280;55524;51.380;13.372;2023-04-20T12:12:53;100957.72;;;6.95;100.00
68525;BME280;55524;51.380;13.372;2023-04-20T12:15:21;100951.69;;;6.86;100.00
68525;BME280;55524;51.380;13.372;2023-04-20T12:17:47;100948.13;;;6.90;100.00
68525;BME280;55524;51.380;13.372;2023-04-20T12:20:13;100956.88;;;6.91;100.00
68525;BME280;55524;51.380;13.372;2023-04-20T12:22:40;100954.97;;;7.02;100.00
68525;BME280;55524;51.380;13.372;2023-04-20T12:25:07;100949.66;;;7.07;100.00
68525;BME280;55524;51.380;13.372;2023-04-20T12:27:33;100951.25;;;7.17;100.00
68525;BME280;55524;51.380;13.372;2023-04-20T12:29:59;100959.97;;;7.21;100.00
68525;BME280;55524;51.380;13.372;2023-04-20T12:32:25;100955.53;;;7.23;100.00
68525;BME280;55524;51.380;13.372;2023-04-20T12:34:52;100945.81;;;7.29;100.00
68525;BME280;55524;51.380;13.372;2023-04-20T12:37:18;100937.69;;;7.43;100.00
68525;BME280;55524;51.380;13.372;2023-04-20T12:39:45;100945.56;;;7.43;100.00
68525;BME280;55524;51.380;13.372;2023-04-20T12:42:11;100938.34;;;7.57;100.00
68525;BME280;55524;51.380;13.372;2023-04-20T12:44:38;100933.03;;;7.59;100.00
68525;BME280;55524;51.380;13.372;2023-04-20T12:47:04;100929.41;;;7.66;100.00